createdAt,value
2023-04-21T00:01:04.336Z,18.80
2023-04-21T00:03:40.287Z,18.50
2023-04-21T00:06:12.515Z,15.20
2023-04-21T00:08:41.129Z,19.00
2023-04-21T00:11:09.535Z,16.40
2023-04-21T00:13:38.990Z,23.50
2023-04-21T00:16:07.740Z,14.30
2023-04-21T00:18:36.634Z,21.10
2023-04-21T00:21:05.194Z,24.80
2023-04-21T00:23:39.359Z,17.50
2023-04-21T00:26:08.561Z,24.10
2023-04-21T00:28:38.568Z,18.90
2023-04-21T00:31:07.152Z,21.20
2023-04-21T00:33:37.153Z,17.10
2023-04-21T00:36:08.558Z,19.60
2023-04-21T00:38:40.012Z,22.10
2023-04-21T00:41:09.560Z,24.00
2023-04-21T00:44:02.734Z,23.20
2023-04-21T00:46:38.072Z,23.80
2023-04-21T00:49:07.135Z,15.30
2023-04-21T00:51:36.279Z,25.60
2023-04-21T00:54:05.809Z,19.60
2023-04-21T00:56:35.521Z,18.20
2023-04-21T00:59:04.201Z,24.80
2023-04-21T01:01:35.358Z,16.50
2023-04-21T01:04:04.629Z,18.70
2023-04-21T01:06:34.271Z,23.60
2023-04-21T01:09:03.653Z,18.20
2023-04-21T01:11:37.412Z,17.20
2023-04-21T01:14:10.955Z,19.50
2023-04-21T01:16:39.937Z,15.70
2023-04-21T01:19:08.323Z,16.50
2023-04-21T01:21:40.584Z,20.60
2023-04-21T01:24:16.066Z,19.30
2023-04-21T01:26:49.562Z,16.30
2023-04-21T01:41:55.846Z,17.40
2023-04-21T01:44:26.007Z,19.80
2023-04-21T01:46:54.174Z,12.80
2023-04-21T01:49:22.446Z,13.90
2023-04-21T01:51:50.807Z,26.00
2023-04-21T01:54:19.111Z,22.70
2023-04-21T01:56:50.019Z,19.30
2023-04-21T01:59:18.564Z,21.10
2023-04-21T02:01:47.102Z,21.00
2023-04-21T02:04:15.544Z,16.30
2023-04-21T02:06:46.138Z,21.30
2023-04-21T02:09:14.404Z,15.70
2023-04-21T02:11:42.732Z,15.30
2023-04-21T02:14:11.093Z,14.70
2023-04-21T02:16:44.584Z,17.70
2023-04-21T02:19:12.782Z,18.80
2023-04-21T02:21:41.059Z,22.80
2023-04-21T02:24:11.955Z,17.40
2023-04-21T02:26:42.651Z,17.10
2023-04-21T02:29:13.166Z,13.50
2023-04-21T02:31:57.337Z,17.50
2023-04-21T02:34:29.898Z,22.10
2023-04-21T02:37:01.027Z,15.20
2023-04-21T02:39:29.370Z,16.90
2023-04-21T02:41:57.564Z,13.40
2023-04-21T02:44:26.353Z,13.60
2023-04-21T02:46:54.606Z,18.10
2023-04-21T02:49:22.950Z,18.40
2023-04-21T02:51:51.628Z,18.60
2023-04-21T02:54:20.249Z,16.80
2023-04-21T02:56:49.535Z,20.90
2023-04-21T02:59:18.048Z,15.60
2023-04-21T03:01:48.181Z,25.20
2023-04-21T03:04:16.716Z,17.80
2023-04-21T03:06:45.003Z,16.10
2023-04-21T03:09:13.816Z,18.00
2023-04-21T03:11:41.935Z,18.40
2023-04-21T03:14:10.110Z,19.80
2023-04-21T03:16:38.408Z,14.40
2023-04-21T03:19:07.075Z,19.60
2023-04-21T03:21:38.445Z,22.20
2023-04-21T03:24:07.593Z,13.00
2023-04-21T03:26:36.632Z,15.70
2023-04-21T03:29:04.879Z,17.80
2023-04-21T03:31:33.612Z,16.10
2023-04-21T03:34:02.590Z,15.40
2023-04-21T03:36:31.589Z,17.30
2023-04-21T03:39:12.802Z,16.30
2023-04-21T03:41:49.129Z,18.40
2023-04-21T03:44:17.324Z,12.60
2023-04-21T03:46:45.494Z,19.50
2023-04-21T03:49:16.192Z,14.80
2023-04-21T03:51:49.285Z,17.20
2023-04-21T03:56:45.987Z,12.00
2023-04-21T03:59:14.172Z,14.80
2023-04-21T04:01:44.740Z,13.90
2023-04-21T04:04:13.143Z,19.60
2023-04-21T04:06:42.187Z,15.30
2023-04-21T04:09:10.483Z,20.00
2023-04-21T04:11:38.677Z,12.90
2023-04-21T04:14:06.938Z,11.70
2023-04-21T04:16:40.489Z,10.40
2023-04-21T04:19:08.704Z,13.90
2023-04-21T04:21:36.903Z,13.10
2023-04-21T04:24:05.540Z,15.60
2023-04-21T04:26:34.740Z,15.00
2023-04-21T04:29:03.043Z,13.40
2023-04-21T04:31:31.348Z,13.60
2023-04-21T04:33:59.697Z,13.40
2023-04-21T04:36:28.729Z,14.60
2023-04-21T04:38:56.908Z,12.30
2023-04-21T04:41:25.326Z,9.10
2023-04-21T04:43:53.725Z,16.50
2023-04-21T04:46:22.102Z,13.10
2023-04-21T04:48:50.358Z,11.90
2023-04-21T04:51:18.543Z,15.40
2023-04-21T04:53:46.881Z,12.40
2023-04-21T04:56:15.143Z,14.70
2023-04-21T04:58:46.566Z,13.60
2023-04-21T05:01:17.296Z,18.40
2023-04-21T05:03:46.817Z,9.90
2023-04-21T05:06:15.365Z,11.50
2023-04-21T05:08:43.925Z,14.50
2023-04-21T05:11:12.281Z,11.30
2023-04-21T05:13:41.342Z,18.70
2023-04-21T05:16:17.881Z,14.70
2023-04-21T05:18:46.361Z,20.80
2023-04-21T05:21:14.597Z,19.70
2023-04-21T05:23:43.085Z,20.20
2023-04-21T05:26:11.336Z,19.50
2023-04-21T05:28:39.876Z,16.20
2023-04-21T05:31:08.215Z,17.20
2023-04-21T05:33:36.811Z,16.60
2023-04-21T05:36:09.582Z,13.80
2023-04-21T05:38:38.548Z,9.90
2023-04-21T05:41:06.952Z,20.20
2023-04-21T05:43:35.539Z,16.40
2023-04-21T05:46:06.182Z,10.90
2023-04-21T05:48:35.185Z,15.20
2023-04-21T05:51:14.022Z,14.50
2023-04-21T05:53:44.862Z,14.50
2023-04-21T05:56:13.906Z,12.40
2023-04-21T05:58:42.384Z,13.10
2023-04-21T06:01:11.452Z,15.70
2023-04-21T06:03:40.028Z,14.60
2023-04-21T06:06:09.417Z,17.10
2023-04-21T06:08:38.356Z,14.90
2023-04-21T06:11:06.576Z,17.30
2023-04-21T06:13:38.356Z,14.90
2023-04-21T06:16:07.410Z,13.80
2023-04-21T06:18:35.937Z,19.20
2023-04-21T06:21:04.382Z,12.40
2023-04-21T06:23:32.701Z,11.00
2023-04-21T06:26:05.592Z,15.70
2023-04-21T06:28:34.606Z,15.40
2023-04-21T06:31:06.214Z,18.00
2023-04-21T06:33:36.892Z,13.10
2023-04-21T06:36:08.030Z,19.40
2023-04-21T06:38:36.426Z,11.30
2023-04-21T06:41:04.907Z,8.30
2023-04-21T06:43:33.235Z,9.80
2023-04-21T06:46:01.557Z,15.80
2023-04-21T06:48:30.488Z,11.60
2023-04-21T06:50:59.092Z,12.10
2023-04-21T06:53:27.379Z,14.90
2023-04-21T06:55:56.156Z,13.00
2023-04-21T06:58:24.367Z,10.80
2023-04-21T07:00:53.076Z,12.30
2023-04-21T07:03:21.614Z,11.80
2023-04-21T07:05:53.439Z,13.10
2023-04-21T07:08:22.312Z,16.00
2023-04-21T07:10:52.813Z,8.60
2023-04-21T07:13:21.295Z,14.30
2023-04-21T07:15:49.456Z,13.50
2023-04-21T07:18:19.309Z,15.80
2023-04-21T07:20:48.161Z,16.50
2023-04-21T07:23:17.453Z,15.90
2023-04-21T07:25:45.698Z,18.30
2023-04-21T07:28:17.261Z,17.00
2023-04-21T07:30:47.774Z,13.90
2023-04-21T07:33:16.405Z,13.80
2023-04-21T07:35:44.521Z,13.30
2023-04-21T07:38:12.694Z,14.70
2023-04-21T07:40:45.131Z,13.90
2023-04-21T07:43:13.641Z,13.80
2023-04-21T07:45:42.135Z,12.70
2023-04-21T07:48:11.933Z,15.70
2023-04-21T07:50:40.183Z,12.50
2023-04-21T07:53:08.382Z,14.90
2023-04-21T07:55:37.513Z,17.00
2023-04-21T07:58:05.891Z,10.60
2023-04-21T08:00:34.186Z,11.60
2023-04-21T08:03:02.467Z,14.90
2023-04-21T08:05:34.802Z,19.00
2023-04-21T08:08:05.498Z,11.60
2023-04-21T08:10:34.197Z,11.50
2023-04-21T08:13:06.675Z,9.00
2023-04-21T08:15:35.158Z,11.80
2023-04-21T08:18:03.455Z,12.40
2023-04-21T08:20:31.704Z,14.80
2023-04-21T08:23:00.903Z,13.30
2023-04-21T08:25:33.838Z,14.10
2023-04-21T08:28:01.986Z,8.30
2023-04-21T08:30:30.631Z,12.50
2023-04-21T08:32:59.187Z,15.90
2023-04-21T08:35:27.472Z,20.40
2023-04-21T08:37:56.634Z,13.80
2023-04-21T08:40:29.346Z,10.50
2023-04-21T08:42:59.424Z,13.70
2023-04-21T08:45:28.377Z,13.30
2023-04-21T08:47:57.208Z,14.30
2023-04-21T08:50:28.739Z,10.70
2023-04-21T08:52:56.962Z,11.10
2023-04-21T08:55:28.397Z,11.90
2023-04-21T08:57:57.000Z,15.10
2023-04-21T09:00:25.412Z,13.00
2023-04-21T09:03:02.030Z,13.30
2023-04-21T09:05:32.622Z,18.60
2023-04-21T09:08:09.574Z,15.90
2023-04-21T09:10:49.456Z,14.50
2023-04-21T09:13:18.404Z,10.40
2023-04-21T09:15:48.327Z,12.70
2023-04-21T09:18:18.900Z,12.10
2023-04-21T09:20:48.802Z,16.70
2023-04-21T09:23:17.348Z,10.20
2023-04-21T09:25:46.135Z,10.70
2023-04-21T09:28:15.999Z,14.30
2023-04-21T09:30:44.622Z,16.00
2023-04-21T09:33:27.950Z,13.80
2023-04-21T09:36:00.736Z,10.70
2023-04-21T09:38:29.745Z,18.10
2023-04-21T09:40:59.254Z,11.80
2023-04-21T09:43:28.052Z,11.80
2023-04-21T09:45:56.492Z,12.30
2023-04-21T09:48:26.284Z,15.20
2023-04-21T09:51:20.967Z,10.50
2023-04-21T09:53:43.063Z,11.20
2023-04-21T09:56:12.900Z,18.90
2023-04-21T09:58:52.512Z,18.60
2023-04-21T10:01:20.879Z,14.10
2023-04-21T10:03:49.774Z,13.70
2023-04-21T10:06:18.265Z,13.90
2023-04-21T10:08:46.475Z,11.50
2023-04-21T10:11:14.725Z,11.70
2023-04-21T10:13:45.775Z,12.60
2023-04-21T10:16:17.688Z,14.20
2023-04-21T10:18:46.350Z,12.20
2023-04-21T10:21:24.660Z,13.20
2023-04-21T10:23:54.105Z,11.40
2023-04-21T10:26:29.917Z,10.40
2023-04-21T10:29:00.348Z,9.80
2023-04-21T10:31:38.435Z,16.50
2023-04-21T10:34:12.173Z,17.20
2023-04-21T10:36:49.800Z,17.20
2023-04-21T10:39:33.341Z,15.20
2023-04-21T10:42:13.884Z,10.60
2023-04-21T10:44:46.193Z,13.20
2023-04-21T10:47:16.988Z,9.90
2023-04-21T10:49:45.591Z,11.00
2023-04-21T10:52:16.639Z,13.10
2023-04-21T10:55:04.093Z,14.00
2023-04-21T10:57:33.313Z,12.20
2023-04-21T11:00:01.886Z,10.30
2023-04-21T11:02:31.189Z,14.30
2023-04-21T11:04:59.839Z,16.40
2023-04-21T11:07:31.510Z,13.80
2023-04-21T11:10:11.564Z,16.50
2023-04-21T11:12:43.202Z,7.90
2023-04-21T11:15:16.002Z,13.40
2023-04-21T11:17:47.339Z,18.80
2023-04-21T11:20:16.499Z,14.10
2023-04-21T11:22:44.596Z,11.90
2023-04-21T11:25:19.149Z,10.00
2023-04-21T11:27:55.372Z,10.30
2023-04-21T11:30:36.666Z,9.70
2023-04-21T11:33:05.124Z,9.50
2023-04-21T11:35:33.291Z,10.30
2023-04-21T11:38:08.001Z,10.70
2023-04-21T11:43:18.728Z,5.80
2023-04-21T11:45:50.589Z,9.80
2023-04-21T11:48:22.416Z,5.70
2023-04-21T11:50:50.763Z,9.20
2023-04-21T11:53:21.666Z,5.70
2023-04-21T11:55:49.762Z,7.00
2023-04-21T11:58:20.744Z,6.00
2023-04-21T12:00:51.326Z,7.90
2023-04-21T12:03:21.061Z,10.40
2023-04-21T12:06:00.566Z,8.50
2023-04-21T12:08:34.369Z,4.60
2023-04-21T12:11:04.312Z,5.70
2023-04-21T12:13:38.066Z,7.20
2023-04-21T12:16:06.900Z,5.90
2023-04-21T12:18:36.871Z,5.80
2023-04-21T12:21:05.586Z,7.40
2023-04-21T12:23:36.248Z,7.80
2023-04-21T12:26:05.966Z,5.50
2023-04-21T12:28:40.270Z,5.90
2023-04-21T12:31:09.455Z,7.70
2023-04-21T12:33:40.999Z,8.40
2023-04-21T12:38:49.257Z,7.40
2023-04-21T12:41:18.043Z,6.10
2023-04-21T12:43:50.525Z,8.10
2023-04-21T12:46:21.124Z,6.50
2023-04-21T12:49:00.055Z,6.90
2023-04-21T12:51:28.324Z,7.70
2023-04-21T12:54:02.585Z,5.90
2023-04-21T12:56:37.770Z,6.10
2023-04-21T12:59:09.144Z,7.60
2023-04-21T13:01:42.898Z,5.90
2023-04-21T13:06:41.279Z,12.60
2023-04-21T13:09:09.448Z,15.50
2023-04-21T13:11:40.966Z,16.20
2023-04-21T13:14:09.234Z,8.10
2023-04-21T13:16:37.456Z,11.70
2023-04-21T13:19:05.855Z,8.90
2023-04-21T13:21:34.811Z,23.80
2023-04-21T13:30:30.668Z,8.50
2023-04-21T13:32:59.342Z,7.60
2023-04-21T13:35:27.517Z,13.40
2023-04-21T13:38:01.109Z,10.30
2023-04-21T13:40:29.616Z,6.60
2023-04-21T13:42:58.999Z,24.90
2023-04-21T13:45:27.493Z,11.20
2023-04-21T13:47:55.852Z,15.00
2023-04-21T13:50:25.833Z,7.40
2023-04-21T13:52:57.192Z,14.80
2023-04-21T13:55:25.384Z,9.20
2023-04-21T13:57:54.140Z,5.70
2023-04-21T14:00:22.432Z,8.40
2023-04-21T14:02:56.056Z,6.70
2023-04-21T14:05:24.613Z,8.80
2023-04-21T14:07:53.587Z,10.90
2023-04-21T14:10:22.569Z,9.70
2023-04-21T14:12:55.367Z,8.30
2023-04-21T14:15:23.675Z,9.70
2023-04-21T14:17:52.993Z,5.90
2023-04-21T14:20:21.363Z,10.90
2023-04-21T14:22:52.875Z,8.80
2023-04-21T14:25:21.313Z,13.20
2023-04-21T14:27:49.640Z,15.30
2023-04-21T14:30:18.118Z,11.10
2023-04-21T14:32:46.486Z,9.30
2023-04-21T14:35:16.808Z,6.80
2023-04-21T14:37:45.091Z,8.20
2023-04-21T14:40:16.102Z,6.60
2023-04-21T14:42:47.472Z,20.10
2023-04-21T14:45:15.807Z,9.00
2023-04-21T14:47:44.015Z,6.60
2023-04-21T14:50:12.226Z,10.90
2023-04-21T14:52:41.994Z,12.30
2023-04-21T14:55:10.128Z,10.80
2023-04-21T14:57:38.318Z,9.30
2023-04-21T15:00:10.945Z,14.30
2023-04-21T15:02:41.939Z,9.40
2023-04-21T15:05:10.279Z,24.00
2023-04-21T15:07:40.565Z,24.80
2023-04-21T15:10:09.534Z,24.00
2023-04-21T15:12:39.127Z,24.90
2023-04-21T15:15:07.818Z,18.20
2023-04-21T15:17:36.410Z,12.10
2023-04-21T15:20:05.052Z,13.10
2023-04-21T15:22:33.382Z,19.70
2023-04-21T15:25:01.472Z,14.60
2023-04-21T15:27:40.040Z,14.00
2023-04-21T15:30:12.108Z,12.30
2023-04-21T15:32:42.157Z,17.00
2023-04-21T15:35:10.349Z,7.00
2023-04-21T15:37:39.017Z,12.80
2023-04-21T15:40:11.557Z,13.40
2023-04-21T15:42:48.800Z,13.90
2023-04-21T15:45:18.215Z,8.90
2023-04-21T15:48:10.512Z,26.70
2023-04-21T15:50:41.284Z,15.30
2023-04-21T15:53:12.416Z,14.40
2023-04-21T15:55:40.732Z,11.10
2023-04-21T15:58:16.394Z,7.70
2023-04-21T16:00:46.058Z,13.80
2023-04-21T16:03:15.175Z,11.30
2023-04-21T16:05:43.538Z,7.10
2023-04-21T16:08:12.082Z,10.60
2023-04-21T16:10:40.316Z,9.10
2023-04-21T16:13:08.437Z,10.90
2023-04-21T16:15:36.806Z,11.90
2023-04-21T16:18:06.709Z,10.70
2023-04-21T16:20:36.631Z,8.90
2023-04-21T16:23:04.982Z,18.10
2023-04-21T16:25:34.222Z,12.10
2023-04-21T16:28:02.470Z,18.70
2023-04-21T16:30:30.977Z,12.30
2023-04-21T16:33:03.051Z,9.30
2023-04-21T16:35:31.507Z,7.50
2023-04-21T16:37:59.893Z,12.60
2023-04-21T16:40:28.425Z,11.70
2023-04-21T16:42:56.557Z,12.40
2023-04-21T16:45:25.007Z,12.00
2023-04-21T16:47:53.342Z,12.50
2023-04-21T16:50:21.828Z,15.80
2023-04-21T16:52:50.012Z,13.40
2023-04-21T16:55:21.372Z,12.40
2023-04-21T16:57:49.640Z,16.80
2023-04-21T17:00:18.085Z,24.10
2023-04-21T17:02:46.777Z,15.80
2023-04-21T17:05:16.952Z,21.20
2023-04-21T17:07:45.189Z,16.60
2023-04-21T17:10:14.667Z,13.60
2023-04-21T17:12:43.098Z,13.80
2023-04-21T17:15:12.513Z,14.00
2023-04-21T17:17:45.357Z,13.20
2023-04-21T17:20:14.177Z,13.50
2023-04-21T17:22:42.551Z,12.30
2023-04-21T17:25:13.454Z,14.80
2023-04-21T17:28:05.037Z,14.10
2023-04-21T17:30:35.896Z,12.20
2023-04-21T17:33:16.084Z,18.80
2023-04-21T17:36:02.251Z,12.80
2023-04-21T17:38:32.381Z,17.60
2023-04-21T17:41:02.084Z,16.60
2023-04-21T17:43:30.833Z,14.60
2023-04-21T17:45:59.161Z,17.20
2023-04-21T17:48:27.617Z,20.50
2023-04-21T17:50:55.776Z,21.20
2023-04-21T17:53:23.939Z,19.60
2023-04-21T17:55:52.563Z,20.40
2023-04-21T17:58:21.182Z,23.40
2023-04-21T18:00:49.689Z,24.30
2023-04-21T18:03:19.453Z,20.50
2023-04-21T18:05:47.750Z,30.80
2023-04-21T18:08:16.439Z,43.90
2023-04-21T18:10:44.627Z,36.80
2023-04-21T18:13:12.885Z,30.80
2023-04-21T18:15:41.896Z,31.50
2023-04-21T18:18:10.957Z,39.20
2023-04-21T18:20:39.174Z,29.80
2023-04-21T18:23:07.390Z,29.50
2023-04-21T18:25:42.790Z,27.70
2023-04-21T18:28:12.811Z,25.50
2023-04-21T18:30:43.658Z,25.30
2023-04-21T18:33:15.228Z,24.30
2023-04-21T18:35:43.881Z,33.10
2023-04-21T18:38:14.491Z,36.90
2023-04-21T18:40:42.823Z,29.80
2023-04-21T18:43:11.231Z,27.00
2023-04-21T18:45:43.257Z,28.00
2023-04-21T18:48:11.552Z,26.50
2023-04-21T18:50:40.863Z,27.10
2023-04-21T18:53:10.439Z,20.20
2023-04-21T18:55:41.383Z,21.00
2023-04-21T18:58:09.499Z,16.50
2023-04-21T19:00:39.266Z,13.70
2023-04-21T19:03:07.700Z,10.70
2023-04-21T19:05:36.968Z,8.20
2023-04-21T19:08:05.812Z,9.00
2023-04-21T19:10:41.343Z,9.70
2023-04-21T19:13:10.268Z,5.80
2023-04-21T19:15:38.735Z,7.60
2023-04-21T19:18:07.825Z,10.10
2023-04-21T19:20:37.505Z,5.70
2023-04-21T19:23:05.953Z,7.00
2023-04-21T19:25:34.125Z,9.00
2023-04-21T19:28:02.743Z,7.60
2023-04-21T19:30:31.032Z,8.30
2023-04-21T19:32:59.187Z,6.60
2023-04-21T19:35:27.671Z,5.50
2023-04-21T19:37:55.926Z,7.30
2023-04-21T19:40:24.319Z,8.50
2023-04-21T19:42:52.668Z,6.60
2023-04-21T19:45:21.106Z,5.80
2023-04-21T19:47:49.780Z,7.00
2023-04-21T19:50:18.158Z,7.70
2023-04-21T19:52:46.859Z,8.90
2023-04-21T19:55:15.277Z,7.60
2023-04-21T19:57:43.554Z,7.80
2023-04-21T20:00:12.620Z,8.30
2023-04-21T20:02:41.593Z,9.50
2023-04-21T20:05:10.312Z,7.80
2023-04-21T20:07:39.850Z,9.10
2023-04-21T20:10:08.332Z,9.20
2023-04-21T20:12:36.666Z,12.90
2023-04-21T20:15:05.816Z,11.20
2023-04-21T20:17:34.607Z,13.90
2023-04-21T20:20:05.314Z,11.40
2023-04-21T20:22:33.687Z,16.00
2023-04-21T20:25:01.772Z,14.60
2023-04-21T20:27:30.323Z,18.40
2023-04-21T20:29:58.466Z,18.80
2023-04-21T20:32:26.824Z,18.00
2023-04-21T20:34:55.018Z,17.10
2023-04-21T20:37:23.253Z,22.70
2023-04-21T20:39:51.627Z,16.40
2023-04-21T20:42:22.015Z,20.30
2023-04-21T20:44:50.190Z,17.40
2023-04-21T20:47:18.334Z,15.30
2023-04-21T20:49:47.540Z,23.40
2023-04-21T20:52:16.085Z,14.60
2023-04-21T20:54:44.290Z,15.70
2023-04-21T20:57:12.730Z,18.60
2023-04-21T20:59:41.144Z,16.00
2023-04-21T21:02:09.945Z,16.50
2023-04-21T21:04:38.387Z,14.60
2023-04-21T21:07:06.642Z,17.30
2023-04-21T21:09:35.933Z,18.70
2023-04-21T21:12:04.383Z,21.40
2023-04-21T21:14:32.615Z,21.10
2023-04-21T21:17:01.627Z,18.30
2023-04-21T21:19:30.162Z,15.90
2023-04-21T21:21:58.409Z,13.90
2023-04-21T21:24:26.596Z,15.50
2023-04-21T21:26:54.757Z,20.60
2023-04-21T21:29:22.931Z,19.10
2023-04-21T21:31:51.143Z,19.40
2023-04-21T21:34:19.315Z,19.80
2023-04-21T21:36:47.454Z,19.80
2023-04-21T21:39:15.640Z,17.80
2023-04-21T21:41:43.791Z,16.40
2023-04-21T21:44:11.936Z,23.80
2023-04-21T21:46:40.217Z,25.20
2023-04-21T21:49:08.627Z,22.00
2023-04-21T21:51:36.728Z,22.90
2023-04-21T21:54:05.718Z,22.10
2023-04-21T21:56:38.772Z,19.50
2023-04-21T21:59:07.147Z,24.20
2023-04-21T22:01:35.420Z,19.90
2023-04-21T22:04:03.721Z,22.00
2023-04-21T22:06:32.792Z,27.90
2023-04-21T22:09:01.195Z,21.30
2023-04-21T22:11:32.558Z,21.90
2023-04-21T22:14:14.527Z,18.10
2023-04-21T22:16:47.532Z,20.00
2023-04-21T22:19:17.738Z,22.00
2023-04-21T22:21:48.130Z,22.90
2023-04-21T22:24:16.351Z,21.20
2023-04-21T22:26:46.963Z,23.30
2023-04-21T22:29:15.163Z,20.10
2023-04-21T22:31:43.271Z,22.50
2023-04-21T22:34:15.036Z,21.50
2023-04-21T22:36:43.591Z,18.10
2023-04-21T22:39:11.750Z,19.30
2023-04-21T22:41:39.878Z,22.30
2023-04-21T22:44:09.038Z,18.50
2023-04-21T22:46:37.889Z,17.50
2023-04-21T22:49:06.158Z,19.50
2023-04-21T22:51:36.298Z,22.20
2023-04-21T22:54:04.566Z,22.60
2023-04-21T22:56:34.076Z,21.80
2023-04-21T22:59:02.302Z,22.10
2023-04-21T23:01:32.160Z,22.70
2023-04-21T23:04:00.482Z,19.10
2023-04-21T23:06:28.894Z,20.10
2023-04-21T23:08:57.038Z,19.70
2023-04-21T23:11:25.358Z,19.90
2023-04-21T23:13:53.572Z,21.60
2023-04-21T23:16:21.945Z,21.40
2023-04-21T23:18:50.304Z,16.30
2023-04-21T23:21:18.459Z,22.60
2023-04-21T23:23:46.664Z,19.60
2023-04-21T23:26:14.768Z,22.80
2023-04-21T23:28:42.918Z,19.10
2023-04-21T23:31:11.211Z,22.60
2023-04-21T23:33:39.426Z,19.10
2023-04-21T23:36:07.596Z,19.80
2023-04-21T23:38:36.010Z,20.90
2023-04-21T23:41:08.959Z,17.30
2023-04-21T23:43:37.367Z,17.00
2023-04-21T23:46:05.670Z,19.00
2023-04-21T23:48:34.947Z,23.00
2023-04-21T23:51:03.203Z,20.00
2023-04-21T23:53:32.013Z,20.70
2023-04-21T23:56:00.740Z,20.40
